タリン の空港の天気 - METARとTAF

タリン空港 ( EETN / TLL ) - エストニア タリン
飛行場実況気象(Metar)
観測時間09/22 19:50 EEST (09/22 16:50 UTC)
風向・風速西南西 2m/s
視程10km以上
天気現象
なし
気温12℃
湿度88%
気圧1009hPa
METAREETN 221650Z 25003KT CAVOK 12/10 Q1009 NOSIG
過去の天気等 Google飛行場航空写真 Wunderground天気予報

過去48時間のMETAR

飛行場予報(TAF)
発表時間: 9/22 14:25 EEST (9/22 11:25 UTC)
予報対象時間: 22日15時 EEST ~ 23日15時 EEST
風向・風速西 8m/s
視程10km以上
全天の4割程度の雲 雲底高度 610m
22日21時 EEST ~ 22日23時 EEST に徐々に
風向・風速南南西 4m/s
23日2時 EEST ~ 23日8時 EEST に 確率 40% で一時的に
視程700m
天気現象散在した霧
全天の8割程度の雲 雲底高度 60m
23日8時 EEST ~ 23日12時 EEST に 確率 40% で一時的に
全天の8割程度の雲 雲底高度 150m
TAF EETN 221125Z 2212/2312 26015KT 9999 SCT020
BECMG 2218/2220 20007KT
PROB40 TEMPO 2223/2305 0700 BCFG BKN002
PROB40 TEMPO 2305/2309 BKN005